createdAt,value
2019-01-20T00:01:19.991Z,-2.00
2019-01-20T00:03:47.091Z,-1.90
2019-01-20T00:06:14.078Z,-1.90
2019-01-20T00:08:41.113Z,-1.90
2019-01-20T00:11:08.013Z,-2.00
2019-01-20T00:13:35.149Z,-2.00
2019-01-20T00:16:02.396Z,-2.00
2019-01-20T00:18:29.652Z,-2.00
2019-01-20T00:20:56.619Z,-2.00
2019-01-20T00:23:23.570Z,-1.90
2019-01-20T00:25:50.505Z,-1.90
2019-01-20T00:28:17.488Z,-1.90
2019-01-20T00:30:44.394Z,-2.00
2019-01-20T00:33:11.469Z,-2.20
2019-01-20T00:35:38.350Z,-2.10
2019-01-20T00:38:05.449Z,-2.10
2019-01-20T00:40:32.410Z,-2.10
2019-01-20T00:42:59.361Z,-2.10
2019-01-20T00:45:26.275Z,-2.00
2019-01-20T00:47:53.273Z,-2.10
2019-01-20T00:50:20.236Z,-2.10
2019-01-20T00:52:47.210Z,-2.30
2019-01-20T00:55:14.905Z,-2.20
2019-01-20T00:57:42.857Z,-2.20
2019-01-20T01:00:15.210Z,-2.30
2019-01-20T01:02:42.679Z,-2.20
2019-01-20T01:05:09.754Z,-2.30
2019-01-20T01:07:36.658Z,-2.30
2019-01-20T01:10:04.958Z,-2.40
2019-01-20T01:12:32.523Z,-2.40
2019-01-20T01:14:59.425Z,-2.40
2019-01-20T01:17:26.346Z,-2.40
2019-01-20T01:19:53.822Z,-2.40
2019-01-20T01:22:20.772Z,-2.40
2019-01-20T01:24:47.645Z,-2.30
2019-01-20T01:27:14.625Z,-2.40
2019-01-20T01:29:41.533Z,-2.30
2019-01-20T01:32:08.550Z,-2.30
2019-01-20T01:34:35.432Z,-2.30
2019-01-20T01:37:02.463Z,-2.20
2019-01-20T01:39:29.364Z,-2.10
2019-01-20T01:41:56.289Z,-2.10
2019-01-20T01:44:23.289Z,-2.00
2019-01-20T01:46:50.239Z,-2.00
2019-01-20T01:49:17.184Z,-2.10
2019-01-20T01:51:44.224Z,-2.00
2019-01-20T01:54:11.220Z,-1.80
2019-01-20T01:56:38.249Z,-1.80
2019-01-20T01:59:05.185Z,-1.70
2019-01-20T02:01:32.065Z,-1.80
2019-01-20T02:03:59.049Z,-1.80
2019-01-20T02:06:25.926Z,-1.60
2019-01-20T02:08:52.866Z,-1.60
2019-01-20T02:11:19.819Z,-1.60
2019-01-20T02:13:46.885Z,-1.50
2019-01-20T02:16:13.831Z,-1.60
2019-01-20T02:18:40.805Z,-1.50
2019-01-20T02:21:07.798Z,-1.40
2019-01-20T02:23:34.769Z,-1.30
2019-01-20T02:26:01.749Z,-1.30
2019-01-20T02:28:28.806Z,-1.30
2019-01-20T02:30:55.789Z,-1.30
2019-01-20T02:33:22.734Z,-1.30
2019-01-20T02:35:49.618Z,-1.20
2019-01-20T02:38:16.630Z,-1.10
2019-01-20T02:40:43.631Z,-1.20
2019-01-20T02:43:10.677Z,-1.20
2019-01-20T02:45:37.644Z,-1.20
2019-01-20T02:48:04.710Z,-1.10
2019-01-20T02:50:31.655Z,-1.00
2019-01-20T02:52:58.665Z,-0.80
2019-01-20T02:55:25.549Z,-0.80
2019-01-20T02:57:52.541Z,-0.70
2019-01-20T03:00:21.511Z,-0.60
2019-01-20T03:02:48.820Z,-0.60
2019-01-20T03:05:16.825Z,-0.60
2019-01-20T03:07:43.790Z,-0.60
2019-01-20T03:10:10.924Z,-0.50
2019-01-20T03:12:37.902Z,-0.60
2019-01-20T03:15:05.648Z,-0.60
2019-01-20T03:17:32.602Z,-0.60
2019-01-20T03:19:59.636Z,-0.70
2019-01-20T03:22:26.572Z,-0.70
2019-01-20T03:24:53.501Z,-0.70
2019-01-20T03:27:20.542Z,-0.80
2019-01-20T03:29:47.595Z,-0.80
2019-01-20T03:32:14.466Z,-0.90
2019-01-20T03:34:41.534Z,-0.90
2019-01-20T03:37:08.461Z,-0.90
2019-01-20T03:39:35.561Z,-0.90
2019-01-20T03:42:02.969Z,-1.00
2019-01-20T03:44:29.934Z,-1.00
2019-01-20T03:46:56.823Z,-1.00
2019-01-20T03:49:23.813Z,-0.90
2019-01-20T03:51:50.798Z,-1.00
2019-01-20T03:54:17.725Z,-1.00
2019-01-20T03:56:44.673Z,-1.00
2019-01-20T03:59:11.648Z,-1.00
2019-01-20T04:01:38.609Z,-0.90
2019-01-20T04:04:05.484Z,-0.90
2019-01-20T04:06:32.430Z,-1.00
2019-01-20T04:08:59.403Z,-1.00
2019-01-20T04:11:26.741Z,-1.00
2019-01-20T04:13:53.683Z,-1.10
2019-01-20T04:16:20.644Z,-1.10
2019-01-20T04:18:47.782Z,-1.10
2019-01-20T04:21:14.711Z,-1.10
2019-01-20T04:23:41.747Z,-1.20
2019-01-20T04:26:08.640Z,-1.20
2019-01-20T04:28:35.694Z,-1.20
2019-01-20T04:31:02.593Z,-1.20
2019-01-20T04:33:29.643Z,-1.30
2019-01-20T04:35:56.653Z,-1.20
2019-01-20T04:38:23.795Z,-1.20
2019-01-20T04:40:50.757Z,-1.20
2019-01-20T04:43:17.637Z,-1.30
2019-01-20T04:45:44.582Z,-1.30
2019-01-20T04:48:11.513Z,-1.30
2019-01-20T04:50:38.385Z,-1.30
2019-01-20T04:53:05.321Z,-1.30
2019-01-20T04:55:32.519Z,-1.30
2019-01-20T04:57:59.671Z,-1.40
2019-01-20T05:00:27.194Z,-1.40
2019-01-20T05:02:54.107Z,-1.50
2019-01-20T05:05:21.488Z,-1.60
2019-01-20T05:07:48.470Z,-1.60
2019-01-20T05:10:16.002Z,-1.60
2019-01-20T05:12:42.889Z,-1.60
2019-01-20T05:15:12.705Z,-1.50
2019-01-20T05:17:39.712Z,-1.70
2019-01-20T05:20:07.450Z,-1.80
2019-01-20T05:22:34.454Z,-1.90
2019-01-20T05:25:01.406Z,-1.90
2019-01-20T05:27:28.413Z,-2.00
2019-01-20T05:29:55.377Z,-2.00
2019-01-20T05:32:22.377Z,-2.00
2019-01-20T05:34:49.443Z,-1.90
2019-01-20T05:37:16.337Z,-1.90
2019-01-20T05:39:43.271Z,-1.80
2019-01-20T05:42:10.182Z,-1.90
2019-01-20T05:44:37.167Z,-2.00
2019-01-20T05:47:04.174Z,-2.10
2019-01-20T05:49:31.260Z,-2.00
2019-01-20T05:51:58.341Z,-2.00
2019-01-20T05:54:25.315Z,-2.00
2019-01-20T05:56:52.217Z,-2.00
2019-01-20T05:59:19.142Z,-2.00
2019-01-20T06:01:46.042Z,-2.10
2019-01-20T06:04:13.038Z,-2.00
2019-01-20T06:06:40.088Z,-2.00
2019-01-20T06:09:07.120Z,-2.10
2019-01-20T06:11:34.033Z,-2.20
2019-01-20T06:14:01.081Z,-2.30
2019-01-20T06:16:28.034Z,-2.40
2019-01-20T06:18:55.007Z,-2.30
2019-01-20T06:21:22.104Z,-2.20
2019-01-20T06:23:49.111Z,-2.20
2019-01-20T06:26:16.124Z,-2.30
2019-01-20T06:28:43.121Z,-2.30
2019-01-20T06:31:11.099Z,-2.30
2019-01-20T06:33:38.113Z,-2.30
2019-01-20T06:36:05.091Z,-2.40
2019-01-20T06:38:32.004Z,-2.40
2019-01-20T06:40:58.928Z,-2.40
2019-01-20T06:43:25.905Z,-2.40
2019-01-20T06:45:52.830Z,-2.40
2019-01-20T06:48:19.718Z,-2.40
2019-01-20T06:50:46.835Z,-2.50
2019-01-20T06:53:13.994Z,-2.60
2019-01-20T06:55:40.992Z,-2.60
2019-01-20T06:58:08.050Z,-2.60
2019-01-20T07:00:36.535Z,-2.70
2019-01-20T07:03:03.829Z,-2.80
2019-01-20T07:05:30.799Z,-2.70
2019-01-20T07:07:57.797Z,-2.70
2019-01-20T07:10:25.096Z,-2.80
2019-01-20T07:12:52.249Z,-2.70
2019-01-20T07:15:21.221Z,-2.70
2019-01-20T07:17:48.377Z,-2.70
2019-01-20T07:20:15.589Z,-2.60
2019-01-20T07:22:42.529Z,-2.60
2019-01-20T07:25:09.798Z,-2.60
2019-01-20T07:27:36.812Z,-2.50
2019-01-20T07:30:07.527Z,-2.50
2019-01-20T07:32:34.573Z,-2.70
2019-01-20T07:35:01.453Z,-2.80
2019-01-20T07:37:28.441Z,-2.70
2019-01-20T07:39:55.473Z,-2.70
2019-01-20T07:42:22.433Z,-2.60
2019-01-20T07:44:49.466Z,-2.70
2019-01-20T07:47:16.424Z,-2.60
2019-01-20T07:49:43.385Z,-2.60
2019-01-20T07:52:10.349Z,-2.50
2019-01-20T07:54:37.365Z,-2.50
2019-01-20T07:57:04.366Z,-2.50
2019-01-20T07:59:31.276Z,-2.50
2019-01-20T08:01:58.350Z,-2.60
2019-01-20T08:04:25.500Z,-2.60
2019-01-20T08:06:52.385Z,-2.60
2019-01-20T08:09:19.325Z,-2.40
2019-01-20T08:11:46.416Z,-2.10
2019-01-20T08:14:13.311Z,-1.90
2019-01-20T08:16:40.278Z,-1.80
2019-01-20T08:19:07.157Z,-1.80
2019-01-20T08:21:34.287Z,-1.70
2019-01-20T08:24:01.441Z,-1.70
2019-01-20T08:26:28.472Z,-1.70
2019-01-20T08:28:55.554Z,-1.70
2019-01-20T08:31:22.640Z,-1.60
2019-01-20T08:33:49.741Z,-1.70
2019-01-20T08:36:16.690Z,-1.60
2019-01-20T08:38:43.734Z,-1.70
2019-01-20T08:41:10.728Z,-1.60
2019-01-20T08:43:38.201Z,-1.50
2019-01-20T08:46:35.016Z,-1.40
2019-01-20T08:49:02.747Z,-1.30
2019-01-20T08:51:30.565Z,-1.10
2019-01-20T08:53:57.467Z,-1.10
2019-01-20T08:56:24.592Z,-1.10
2019-01-20T08:58:51.665Z,-1.10
2019-01-20T09:01:18.725Z,-1.00
2019-01-20T09:03:45.758Z,-1.00
2019-01-20T09:06:12.808Z,-1.00
2019-01-20T09:08:39.800Z,-0.90
2019-01-20T09:11:06.804Z,-0.80
2019-01-20T09:13:39.674Z,-0.80
2019-01-20T09:16:03.090Z,-0.70
2019-01-20T09:18:30.103Z,-0.60
2019-01-20T09:20:57.182Z,-0.70
2019-01-20T09:23:24.272Z,-0.60
2019-01-20T09:25:51.270Z,-0.60
2019-01-20T09:28:18.253Z,-0.50
2019-01-20T09:30:45.242Z,-0.50
2019-01-20T09:33:12.223Z,-0.40
2019-01-20T09:35:39.212Z,-0.40
2019-01-20T09:38:06.313Z,-0.30
2019-01-20T09:40:33.353Z,-0.20
2019-01-20T09:43:00.309Z,-0.20
2019-01-20T09:45:28.359Z,-0.20
2019-01-20T09:47:55.342Z,-0.20
2019-01-20T09:50:22.309Z,-0.20
2019-01-20T09:52:49.345Z,-0.10
2019-01-20T09:55:16.706Z,-0.10
2019-01-20T09:57:44.146Z,-0.10
2019-01-20T10:00:14.275Z,-0.20
2019-01-20T10:02:41.275Z,-0.10
2019-01-20T10:05:08.344Z,-0.10
2019-01-20T10:07:35.411Z,0.00
2019-01-20T10:10:03.051Z,0.10
2019-01-20T10:12:30.001Z,0.10
2019-01-20T10:14:56.922Z,0.20
2019-01-20T10:17:23.828Z,0.30
2019-01-20T10:19:50.777Z,0.40
2019-01-20T10:22:17.677Z,0.50
2019-01-20T10:24:44.704Z,0.70
2019-01-20T10:27:11.764Z,1.10
2019-01-20T10:29:38.971Z,1.80
2019-01-20T10:32:06.073Z,2.30
2019-01-20T10:34:33.801Z,2.80
2019-01-20T10:37:01.306Z,3.10
2019-01-20T10:39:28.831Z,3.10
2019-01-20T10:41:55.926Z,3.20
2019-01-20T10:44:22.847Z,3.20
2019-01-20T10:46:49.888Z,2.80
2019-01-20T10:49:17.071Z,2.30
2019-01-20T10:51:44.190Z,2.00
2019-01-20T10:54:13.157Z,2.00
2019-01-20T10:56:40.201Z,2.00
2019-01-20T10:59:07.123Z,1.90
2019-01-20T11:01:35.080Z,1.80
2019-01-20T11:04:04.650Z,1.60
2019-01-20T11:06:31.601Z,1.50
2019-01-20T11:08:59.544Z,1.40
2019-01-20T11:11:26.541Z,1.40
2019-01-20T11:13:54.370Z,1.40
2019-01-20T11:16:23.291Z,1.40
2019-01-20T11:18:50.388Z,1.40
2019-01-20T11:21:17.398Z,1.40
2019-01-20T11:23:44.785Z,1.50
2019-01-20T11:26:11.681Z,1.40
2019-01-20T11:28:38.790Z,1.40
2019-01-20T11:31:05.690Z,1.50
2019-01-20T11:33:33.052Z,1.40
2019-01-20T11:35:59.949Z,1.40
2019-01-20T11:38:27.137Z,1.50
2019-01-20T11:40:54.154Z,1.50
2019-01-20T11:43:21.126Z,1.60
2019-01-20T11:45:48.518Z,1.60
2019-01-20T11:48:15.560Z,1.70
2019-01-20T11:50:42.850Z,1.70
2019-01-20T11:53:09.874Z,1.60
2019-01-20T11:55:36.901Z,1.60
2019-01-20T11:58:04.019Z,1.60
2019-01-20T12:00:33.167Z,1.60
2019-01-20T12:03:00.363Z,1.50
2019-01-20T12:05:28.465Z,1.50
2019-01-20T12:07:55.453Z,1.60
2019-01-20T12:10:22.750Z,1.70
2019-01-20T12:12:54.657Z,1.80
2019-01-20T12:15:21.752Z,1.80
2019-01-20T12:17:48.835Z,1.80
2019-01-20T12:20:16.078Z,1.80
2019-01-20T12:22:43.429Z,1.80
2019-01-20T12:25:12.647Z,1.80
2019-01-20T12:27:39.681Z,1.80
2019-01-20T12:30:10.424Z,1.80
2019-01-20T12:32:37.460Z,1.80
2019-01-20T12:35:04.644Z,1.70
2019-01-20T12:37:31.640Z,1.70
2019-01-20T12:39:58.713Z,1.70
2019-01-20T12:42:25.772Z,1.70
2019-01-20T12:44:52.685Z,1.70
2019-01-20T12:47:19.719Z,1.70
2019-01-20T12:49:46.745Z,1.80
2019-01-20T12:52:13.831Z,1.80
2019-01-20T12:54:40.836Z,1.80
2019-01-20T12:57:07.952Z,1.90
2019-01-20T12:59:35.002Z,1.90
2019-01-20T13:02:02.191Z,1.90
2019-01-20T13:04:29.470Z,2.00
2019-01-20T13:06:56.694Z,2.00
2019-01-20T13:09:23.851Z,2.00
2019-01-20T13:11:50.993Z,2.00
2019-01-20T13:14:18.138Z,2.00
2019-01-20T13:16:45.195Z,2.00
2019-01-20T13:19:12.269Z,2.00
2019-01-20T13:21:39.389Z,2.00
2019-01-20T13:24:06.622Z,2.00
2019-01-20T13:26:33.850Z,2.00
2019-01-20T13:29:01.225Z,2.10
2019-01-20T13:31:28.339Z,2.10
2019-01-20T13:33:55.751Z,2.10
2019-01-20T13:36:22.949Z,2.10
2019-01-20T13:38:50.153Z,2.10
2019-01-20T13:41:35.115Z,2.10
2019-01-20T13:44:02.515Z,2.20
2019-01-20T13:46:29.709Z,2.20
2019-01-20T13:48:56.810Z,2.30
2019-01-20T13:51:23.961Z,2.20
2019-01-20T13:53:51.116Z,2.20
2019-01-20T13:56:18.413Z,2.10
2019-01-20T13:58:45.629Z,2.20
2019-01-20T14:01:12.670Z,2.20
2019-01-20T14:03:39.815Z,2.20
2019-01-20T14:06:07.432Z,2.30
2019-01-20T14:08:34.891Z,2.30
2019-01-20T14:11:02.054Z,2.30
2019-01-20T14:13:29.013Z,2.30
2019-01-20T14:15:56.101Z,2.20
2019-01-20T14:18:23.309Z,2.20
2019-01-20T14:20:50.425Z,2.20
2019-01-20T14:23:17.498Z,2.20
2019-01-20T14:25:44.784Z,2.20
2019-01-20T14:28:11.997Z,2.20
2019-01-20T14:30:39.549Z,2.20
2019-01-20T14:33:09.013Z,2.20
2019-01-20T14:35:38.516Z,2.30
2019-01-20T14:38:05.836Z,2.30
2019-01-20T14:40:33.226Z,2.30
2019-01-20T14:43:00.345Z,2.30
2019-01-20T14:45:27.846Z,2.30
2019-01-20T14:47:55.403Z,2.20
2019-01-20T14:50:24.125Z,2.20
2019-01-20T14:52:52.379Z,2.30
2019-01-20T14:55:20.112Z,2.20
2019-01-20T14:57:47.525Z,2.20
2019-01-20T15:00:25.020Z,2.20
2019-01-20T15:02:52.579Z,2.20
2019-01-20T15:05:19.695Z,2.10
2019-01-20T15:07:46.836Z,2.10
2019-01-20T15:10:13.918Z,2.00
2019-01-20T15:12:41.407Z,2.00
2019-01-20T15:15:10.830Z,1.90
2019-01-20T15:17:37.929Z,1.90
2019-01-20T15:20:08.823Z,1.90
2019-01-20T15:22:35.917Z,1.90
2019-01-20T15:25:04.323Z,1.80
2019-01-20T15:27:32.247Z,1.80
2019-01-20T15:29:59.600Z,1.70
2019-01-20T15:32:26.965Z,1.80
2019-01-20T15:34:54.466Z,1.70
2019-01-20T15:37:21.677Z,1.60
2019-01-20T15:39:49.833Z,1.60
2019-01-20T15:42:16.843Z,1.50
2019-01-20T15:44:43.940Z,1.50
2019-01-20T15:47:10.873Z,1.50
2019-01-20T15:49:37.840Z,1.50
2019-01-20T15:52:04.938Z,1.50
2019-01-20T15:54:31.933Z,1.40
2019-01-20T15:56:58.993Z,1.50
2019-01-20T15:59:25.977Z,1.40
2019-01-20T16:01:53.192Z,1.40
2019-01-20T16:04:24.108Z,1.40
2019-01-20T16:06:49.136Z,1.40
2019-01-20T16:09:16.223Z,1.40
2019-01-20T16:11:43.218Z,1.30
2019-01-20T16:14:10.297Z,1.20
2019-01-20T16:16:38.354Z,1.20
2019-01-20T16:19:05.658Z,1.20
2019-01-20T16:21:32.674Z,1.20
2019-01-20T16:23:59.741Z,1.10
2019-01-20T16:26:26.765Z,1.00
2019-01-20T16:28:53.933Z,1.00
2019-01-20T16:31:20.981Z,1.00
2019-01-20T16:33:48.022Z,1.00
2019-01-20T16:36:15.203Z,0.90
2019-01-20T16:38:42.261Z,0.70
2019-01-20T16:41:09.749Z,0.60
2019-01-20T16:43:36.729Z,0.50
2019-01-20T16:46:03.812Z,0.50
2019-01-20T16:48:30.903Z,0.40
2019-01-20T16:50:57.945Z,0.40
2019-01-20T16:53:25.041Z,0.40
2019-01-20T16:55:52.052Z,0.30
2019-01-20T16:58:19.272Z,0.30
2019-01-20T17:00:46.228Z,0.30
2019-01-20T17:03:14.097Z,0.20
2019-01-20T17:05:41.097Z,0.20
2019-01-20T17:08:08.383Z,0.10
2019-01-20T17:10:40.058Z,0.20
2019-01-20T17:13:08.023Z,0.20
2019-01-20T17:15:39.685Z,0.20
2019-01-20T17:18:07.057Z,0.20
2019-01-20T17:20:34.116Z,0.20
2019-01-20T17:23:01.237Z,0.10
2019-01-20T17:25:28.365Z,0.20
2019-01-20T17:27:55.313Z,0.20
2019-01-20T17:30:24.537Z,0.20
2019-01-20T17:32:52.237Z,0.10
2019-01-20T17:35:19.188Z,0.10
2019-01-20T17:37:46.135Z,0.10
2019-01-20T17:40:18.738Z,0.10
2019-01-20T17:42:45.879Z,0.10
2019-01-20T17:45:14.986Z,0.00
2019-01-20T17:47:42.025Z,0.00
2019-01-20T17:50:18.444Z,0.00
2019-01-20T17:52:45.803Z,0.00
2019-01-20T17:55:12.830Z,-0.10
2019-01-20T17:57:40.027Z,-0.20
2019-01-20T18:00:10.671Z,-0.30
2019-01-20T18:02:37.843Z,-0.50
2019-01-20T18:05:07.137Z,-0.40
2019-01-20T18:07:34.232Z,-0.40
2019-01-20T18:10:01.434Z,-0.40
2019-01-20T18:12:28.353Z,-0.40
2019-01-20T18:14:55.294Z,-0.40
2019-01-20T18:17:22.236Z,-0.50
2019-01-20T18:19:49.295Z,-0.60
2019-01-20T18:22:16.251Z,-0.70
2019-01-20T18:24:43.309Z,-0.70
2019-01-20T18:27:10.402Z,-0.70
2019-01-20T18:29:37.480Z,-0.60
2019-01-20T18:32:06.053Z,-0.80
2019-01-20T18:34:33.246Z,-0.70
2019-01-20T18:37:00.229Z,-0.60
2019-01-20T18:39:27.157Z,-0.60
2019-01-20T18:41:54.262Z,-0.60
2019-01-20T18:44:21.417Z,-0.60
2019-01-20T18:46:48.450Z,-0.60
2019-01-20T18:49:15.556Z,-0.60
2019-01-20T18:51:42.641Z,-0.70
2019-01-20T18:54:09.576Z,-0.60
2019-01-20T18:56:36.596Z,-0.60
2019-01-20T18:59:03.708Z,-0.60
2019-01-20T19:01:30.610Z,-0.60
2019-01-20T19:03:57.570Z,-0.50
2019-01-20T19:06:24.545Z,-0.50
2019-01-20T19:08:51.437Z,-0.50
2019-01-20T19:11:18.484Z,-0.60
2019-01-20T19:13:45.662Z,-0.70
2019-01-20T19:16:12.719Z,-0.80
2019-01-20T19:18:39.666Z,-0.80
2019-01-20T19:21:06.595Z,-0.90
2019-01-20T19:23:33.485Z,-1.00
2019-01-20T19:26:00.787Z,-1.10
2019-01-20T19:28:27.749Z,-1.10
2019-01-20T19:30:54.938Z,-1.00
2019-01-20T19:33:21.965Z,-1.10
2019-01-20T19:35:49.197Z,-1.00
2019-01-20T19:38:16.268Z,-1.00
2019-01-20T19:40:43.294Z,-1.00
2019-01-20T19:43:10.223Z,-0.90
2019-01-20T19:45:37.302Z,-1.10
2019-01-20T19:48:04.413Z,-1.10
2019-01-20T19:50:31.560Z,-1.10
2019-01-20T19:52:58.774Z,-1.10
2019-01-20T19:55:28.190Z,-1.10
2019-01-20T19:57:55.403Z,-1.20
2019-01-20T20:00:23.444Z,-1.40
2019-01-20T20:02:50.502Z,-1.50
2019-01-20T20:05:18.211Z,-1.50
2019-01-20T20:07:45.975Z,-1.50
2019-01-20T20:10:15.641Z,-1.50
2019-01-20T20:12:43.594Z,-1.60
2019-01-20T20:15:13.741Z,-1.60
2019-01-20T20:17:41.621Z,-1.50
2019-01-20T20:20:10.283Z,-1.50
2019-01-20T20:22:37.435Z,-1.60
2019-01-20T20:25:05.666Z,-1.70
2019-01-20T20:27:32.795Z,-1.70
2019-01-20T20:30:00.020Z,-1.70
2019-01-20T20:32:27.650Z,-1.70
2019-01-20T20:34:54.906Z,-1.80
2019-01-20T20:37:22.524Z,-1.70
2019-01-20T20:39:51.774Z,-1.70
2019-01-20T20:42:18.913Z,-1.70
2019-01-20T20:44:46.015Z,-1.70
2019-01-20T20:47:16.688Z,-1.70
2019-01-20T20:49:43.805Z,-1.60
2019-01-20T20:52:10.942Z,-1.60
2019-01-20T20:54:38.001Z,-1.60
2019-01-20T20:57:04.979Z,-1.60
2019-01-20T20:59:32.138Z,-1.60
2019-01-20T21:01:59.220Z,-1.60
2019-01-20T21:04:26.284Z,-1.50
2019-01-20T21:06:53.325Z,-1.60
2019-01-20T21:09:20.224Z,-1.70
2019-01-20T21:11:47.172Z,-1.70
2019-01-20T21:14:14.177Z,-1.70
2019-01-20T21:16:41.242Z,-1.80
2019-01-20T21:19:08.247Z,-1.80
2019-01-20T21:21:35.260Z,-1.80
2019-01-20T21:24:02.286Z,-1.80
2019-01-20T21:26:29.829Z,-1.80
2019-01-20T21:28:56.951Z,-1.80
2019-01-20T21:31:23.862Z,-1.80
2019-01-20T21:33:50.821Z,-1.90
2019-01-20T21:36:17.747Z,-1.90
2019-01-20T21:38:44.869Z,-2.00
2019-01-20T21:41:12.692Z,-2.00
2019-01-20T21:43:39.964Z,-2.00
2019-01-20T21:46:06.951Z,-1.90
2019-01-20T21:48:33.990Z,-1.90
2019-01-20T21:51:00.884Z,-2.10
2019-01-20T21:53:27.845Z,-2.00
2019-01-20T21:55:54.898Z,-2.10
2019-01-20T21:58:21.841Z,-1.90
2019-01-20T22:00:48.930Z,-2.00
2019-01-20T22:03:16.009Z,-2.10
2019-01-20T22:05:42.931Z,-2.20
2019-01-20T22:08:09.959Z,-2.20
2019-01-20T22:10:37.127Z,-2.40
2019-01-20T22:13:04.108Z,-2.30
2019-01-20T22:15:31.235Z,-2.30
2019-01-20T22:17:58.222Z,-2.30
2019-01-20T22:20:25.368Z,-2.40
2019-01-20T22:22:52.739Z,-2.30
2019-01-20T22:25:19.654Z,-2.20
2019-01-20T22:27:46.702Z,-2.20
2019-01-20T22:30:15.897Z,-2.30
2019-01-20T22:32:42.847Z,-2.30
2019-01-20T22:35:10.171Z,-2.30
2019-01-20T22:37:37.212Z,-2.20
2019-01-20T22:40:04.685Z,-2.10
2019-01-20T22:42:31.737Z,-2.20
2019-01-20T22:44:58.606Z,-2.40
2019-01-20T22:47:26.607Z,-2.40
2019-01-20T22:49:53.634Z,-2.40
2019-01-20T22:52:20.633Z,-2.40
2019-01-20T22:54:47.610Z,-2.30
2019-01-20T22:57:14.947Z,-2.50
2019-01-20T22:59:41.829Z,-2.50
2019-01-20T23:02:08.809Z,-2.50
2019-01-20T23:04:35.853Z,-2.50
2019-01-20T23:07:02.994Z,-2.50
2019-01-20T23:09:30.033Z,-2.50
2019-01-20T23:11:56.995Z,-2.50
2019-01-20T23:14:25.029Z,-2.60
2019-01-20T23:16:52.066Z,-2.60
2019-01-20T23:19:19.835Z,-2.50
2019-01-20T23:21:47.018Z,-2.60
2019-01-20T23:24:14.140Z,-2.50
2019-01-20T23:26:41.226Z,-2.70
2019-01-20T23:29:08.233Z,-2.80
2019-01-20T23:31:35.282Z,-2.70
2019-01-20T23:34:02.300Z,-2.70
2019-01-20T23:36:29.269Z,-2.60
2019-01-20T23:38:56.232Z,-2.70
2019-01-20T23:41:23.151Z,-2.80
2019-01-20T23:43:50.210Z,-2.80
2019-01-20T23:46:17.305Z,-2.70
2019-01-20T23:48:44.243Z,-2.60
2019-01-20T23:51:11.166Z,-2.60
2019-01-20T23:53:38.213Z,-2.60
2019-01-20T23:56:05.144Z,-2.70
2019-01-20T23:58:32.169Z,-2.80
